Time;durP1;ratioP1;P1;durP2;ratioP2;P2;SDS_P1;SDS_P2;PMS_P1;PMS_P2;Temp;Humidity;BMP_temperature;BMP_pressure;BME280_temperature;BME280_humidity;BME280_pressure;Samples;Min_cycle;Max_cycle;Signal;HPM_P1;HPM_P2
2023/01/10 00:00:50;;;;;;;10.70;5.03;;;;;;;-4.93;58.56;102096.42;1770826;81;21251;-54
2023/01/10 00:03:56;;;;;;;12.90;4.92;;;;;;;-4.96;58.45;102096.50;1770825;81;21252;-52
2023/01/10 00:07:03;;;;;;;14.00;5.62;;;;;;;-4.96;58.57;102089.83;1770800;81;21231;-52
2023/01/10 00:10:10;;;;;;;11.78;4.08;;;;;;;-4.90;58.65;102091.01;1770526;81;21267;-53
2023/01/10 00:13:23;;;;;;;12.45;4.95;;;;;;;-4.89;58.65;102092.78;1770881;81;21221;-53
2023/01/10 00:16:29;;;;;;;13.10;4.80;;;;;;;-5.02;58.28;102082.42;1713542;84;21274;-51
2023/01/10 00:19:34;;;;;;;13.03;5.10;;;;;;;-5.16;58.20;102081.88;1770749;81;21752;-53
2023/01/10 00:22:40;;;;;;;15.80;4.70;;;;;;;-5.25;58.17;102085.62;1694005;83;21234;-52
2023/01/10 00:25:46;;;;;;;11.93;5.28;;;;;;;-5.36;58.04;102084.13;1770604;81;21233;-52
2023/01/10 00:28:53;;;;;;;10.43;4.50;;;;;;;-5.44;58.13;102080.27;1771154;80;21185;-52
2023/01/10 00:31:59;;;;;;;14.93;5.05;;;;;;;-5.45;58.09;102083.87;1713658;82;21321;-52
2023/01/10 00:35:05;;;;;;;10.28;4.62;;;;;;;-5.52;58.11;102069.38;1770959;81;21575;-53
2023/01/10 00:38:10;;;;;;;13.05;5.35;;;;;;;-5.54;58.12;102073.41;1713700;83;21246;-52
2023/01/10 00:44:40;;;;;;;11.10;4.70;;;;;;;-5.58;58.20;102077.03;1713566;83;21305;-53
2023/01/10 00:47:46;;;;;;;14.65;4.90;;;;;;;-5.58;58.22;102070.84;1770852;81;21181;-53
2023/01/10 00:50:53;;;;;;;15.13;5.55;;;;;;;-5.67;58.01;102069.24;1713792;83;21222;-52
2023/01/10 00:53:59;;;;;;;13.78;4.83;;;;;;;-5.68;58.07;102071.50;1770905;81;21207;-53
2023/01/10 00:57:04;;;;;;;14.05;4.87;;;;;;;-5.66;58.14;102068.31;1771083;81;21189;-52
2023/01/10 01:00:13;;;;;;;12.68;5.40;;;;;;;-5.61;58.17;102065.58;1713478;84;21218;-53
2023/01/10 01:03:22;;;;;;;9.00;4.12;;;;;;;-5.60;58.09;102060.21;1713676;84;21261;-52
2023/01/10 01:06:28;;;;;;;11.83;5.03;;;;;;;-5.64;57.95;102071.84;1770694;80;21216;-52
2023/01/10 01:09:33;;;;;;;12.95;5.08;;;;;;;-5.74;57.84;102064.94;1713743;83;21230;-52
2023/01/10 01:12:39;;;;;;;13.20;4.97;;;;;;;-5.82;57.76;102044.30;1770800;81;21220;-52
2023/01/10 01:15:45;;;;;;;17.73;4.47;;;;;;;-5.85;57.77;102063.47;1714434;83;21262;-53
2023/01/10 01:18:51;;;;;;;9.88;4.20;;;;;;;-5.90;57.77;102056.02;1713544;83;21206;-53
2023/01/10 01:21:57;;;;;;;19.92;6.67;;;;;;;-5.96;57.72;102050.34;1770914;81;21240;-53
2023/01/10 01:25:03;;;;;;;16.60;4.47;;;;;;;-6.05;57.71;102051.88;1715115;80;21260;-53
2023/01/10 01:28:08;;;;;;;8.68;4.92;;;;;;;-6.07;57.73;102058.16;1753501;82;21237;-52
2023/01/10 01:31:16;;;;;;;9.98;4.67;;;;;;;-6.09;57.66;102074.63;1726842;81;21261;-51
2023/01/10 01:34:22;;;;;;;13.08;4.92;;;;;;;-6.14;57.68;102069.39;1708248;84;21642;-53
2023/01/10 01:37:32;;;;;;;11.33;4.22;;;;;;;-6.10;57.75;102059.08;1741489;82;21315;-54
2023/01/10 01:40:40;;;;;;;9.33;5.12;;;;;;;-6.07;57.75;102069.67;1712554;82;21201;-53
2023/01/10 01:44:08;;;;;;;10.08;3.95;;;;;;;-6.09;57.68;102062.62;1711582;82;21208;-54
2023/01/10 01:47:23;;;;;;;10.72;4.22;;;;;;;-6.04;57.74;102056.76;1711847;82;21217;-53
2023/01/10 01:50:30;;;;;;;;;;;;;;;-6.12;57.56;102060.03;1742812;82;21268;-52
2023/01/10 01:53:45;;;;;;;9.78;3.85;;;;;;;-6.14;57.59;102052.06;1704666;84;20217;-52
2023/01/10 01:57:07;;;;;;;10.90;3.80;;;;;;;-6.11;57.64;102052.00;1705736;83;21226;-53
2023/01/10 02:00:13;;;;;;;7.78;3.77;;;;;;;-6.12;57.62;102062.69;1705641;84;21278;-52
2023/01/10 02:03:20;;;;;;;9.45;3.80;;;;;;;-6.12;57.62;102057.36;1706898;84;21234;-52
2023/01/10 02:06:27;;;;;;;10.80;3.95;;;;;;;-6.07;57.68;102059.01;1705801;84;21238;-52
2023/01/10 02:10:02;;;;;;;10.08;3.50;;;;;;;-5.99;57.76;102058.88;1706279;83;21728;-53
2023/01/10 02:13:13;;;;;;;9.40;3.52;;;;;;;-5.97;57.61;102051.70;1706099;84;21242;-52
2023/01/10 02:16:18;;;;;;;7.28;3.83;;;;;;;-6.08;57.37;102060.37;1706099;84;21274;-52
2023/01/10 02:19:33;;;;;;;7.55;3.35;;;;;;;-6.16;57.35;102065.86;1706044;84;21230;-53
2023/01/10 02:23:34;;;;;;;11.20;3.83;;;;;;;-6.10;57.54;102055.08;1706039;84;21250;-54
2023/01/10 02:27:24;;;;;;;9.48;3.92;;;;;;;-6.03;57.59;102064.72;1707738;82;21228;-53
2023/01/10 02:31:04;;;;;;;6.67;3.40;;;;;;;-6.00;57.53;102055.77;1744056;82;21240;-52
2023/01/10 02:34:40;;;;;;;10.75;3.90;;;;;;;-5.98;57.53;102053.95;1744193;82;21188;-53
2023/01/10 02:38:07;;;;;;;11.60;3.67;;;;;;;-5.96;57.44;102043.67;1744092;82;21236;-52
2023/01/10 02:41:48;;;;;;;11.00;3.37;;;;;;;-5.99;57.27;102036.22;1714952;83;21738;-52
2023/01/10 02:45:06;;;;;;;9.75;3.77;;;;;;;-6.09;57.13;102041.31;1709688;83;21207;-52
2023/01/10 02:48:12;;;;;;;11.05;3.42;;;;;;;-6.18;57.13;102041.03;1744092;82;21275;-53
2023/01/10 02:51:26;;;;;;;12.85;3.58;;;;;;;-6.17;57.24;102042.33;1744058;82;21209;-51
2023/01/10 02:54:35;;;;;;;11.57;4.08;;;;;;;-6.18;57.14;102042.36;1744078;82;21279;-53
2023/01/10 02:58:14;;;;;;;5.67;3.12;;;;;;;-6.29;56.92;102029.70;1708886;83;21221;-51
2023/01/10 03:01:35;;;;;;;10.48;3.62;;;;;;;-6.44;56.86;102048.66;1714135;83;21354;-52
2023/01/10 03:05:27;;;;;;;10.88;3.72;;;;;;;-6.53;56.85;102044.81;1716377;83;21719;-53
2023/01/10 03:08:47;;;;;;;13.03;3.75;;;;;;;-6.52;56.99;102051.48;1709051;83;21201;-54
2023/01/10 03:11:53;;;;;;;10.18;3.85;;;;;;;-6.50;56.98;102048.30;1715191;83;21753;-52
2023/01/10 03:15:01;;;;;;;8.80;4.40;;;;;;;-6.48;57.00;102045.61;1714067;83;21817;-52
2023/01/10 03:18:10;;;;;;;10.28;4.17;;;;;;;-6.46;56.98;102039.81;1712805;83;21323;-52
2023/01/10 03:21:17;;;;;;;7.62;3.87;;;;;;;-6.48;56.95;102042.50;1712456;83;21260;-51
2023/01/10 03:24:27;;;;;;;7.10;3.30;;;;;;;-6.43;56.97;102043.30;1711714;83;21205;-52
2023/01/10 03:27:46;;;;;;;10.93;4.17;;;;;;;-6.42;56.85;102049.04;1706788;80;21673;-52
2023/01/10 03:31:13;;;;;;;6.87;3.80;;;;;;;-6.41;56.90;102052.59;1726902;82;21232;-54
2023/01/10 03:34:19;;;;;;;12.80;4.12;;;;;;;-6.34;56.90;102046.22;1736711;82;21217;-52
2023/01/10 03:37:38;;;;;;;8.53;3.80;;;;;;;-6.35;56.89;102051.14;1706013;82;21226;-52
2023/01/10 03:41:00;;;;;;;10.53;4.00;;;;;;;-6.25;56.99;102046.07;1704697;83;21374;-52
2023/01/10 03:44:43;;;;;;;7.90;3.75;;;;;;;-6.18;56.99;102054.34;1706734;82;21208;-53
2023/01/10 03:47:49;;;;;;;11.53;4.37;;;;;;;-6.11;57.02;102065.33;1729909;82;21276;-53
2023/01/10 03:50:54;;;;;;;6.80;4.07;;;;;;;-6.06;56.91;102050.56;1707439;83;21236;-52
2023/01/10 03:54:01;;;;;;;9.50;3.72;;;;;;;-6.04;56.90;102058.94;1706043;83;21216;-51
2023/01/10 03:57:07;;;;;;;13.90;5.08;;;;;;;-5.99;56.92;102064.21;1705210;83;21280;-51
2023/01/10 04:00:15;;;;;;;11.22;4.47;;;;;;;-5.99;56.77;102058.41;1736721;81;21204;-53
2023/01/10 04:03:20;;;;;;;6.55;3.37;;;;;;;-5.98;56.79;102046.85;1710703;83;21237;-52
2023/01/10 04:06:26;;;;;;;6.72;3.72;;;;;;;-5.95;56.78;102058.78;1705875;82;21227;-51
2023/01/10 04:09:31;;;;;;;9.88;3.67;;;;;;;-6.00;56.61;102067.77;1704046;83;21205;-51
2023/01/10 04:12:38;;;;;;;5.47;2.83;;;;;;;-6.03;56.60;102061.16;1706967;83;21645;-52
2023/01/10 04:15:44;;;;;;;9.33;3.92;;;;;;;-6.04;56.53;102068.75;1708394;83;21240;-53
2023/01/10 04:18:49;;;;;;;31.75;13.05;;;;;;;-6.16;56.36;102069.86;1710054;82;21284;-52
2023/01/10 04:21:54;;;;;;;6.75;3.60;;;;;;;-6.14;56.54;102076.05;1736843;82;21296;-55
2023/01/10 04:25:02;;;;;;;9.98;4.40;;;;;;;-6.06;56.68;102065.23;1736816;82;21181;-54
2023/01/10 04:28:08;;;;;;;5.83;3.42;;;;;;;-6.02;56.68;102067.80;1738663;79;21650;-54
2023/01/10 04:31:15;;;;;;;7.87;3.72;;;;;;;-5.99;56.58;102057.06;1744148;82;21244;-54
2023/01/10 04:34:21;;;;;;;12.73;5.80;;;;;;;-6.05;56.44;102050.98;1714704;82;21205;-54
2023/01/10 04:37:26;;;;;;;12.07;6.03;;;;;;;-6.07;56.48;102055.02;1703066;83;21232;-55
2023/01/10 04:40:33;;;;;;;24.35;8.18;;;;;;;-6.07;56.48;102057.67;1744249;82;21212;-57
2023/01/10 04:43:38;;;;;;;16.50;6.97;;;;;;;-6.05;56.49;102060.31;1715926;83;21205;-56
2023/01/10 04:46:43;;;;;;;21.23;7.33;;;;;;;-6.02;56.51;102063.80;1712810;83;21260;-55
2023/01/10 04:49:49;;;;;;;18.12;7.65;;;;;;;-6.06;56.32;102062.12;1708535;83;21221;-55
2023/01/10 04:52:55;;;;;;;8.88;3.92;;;;;;;-6.17;56.16;102064.56;1743416;82;21213;-56
2023/01/10 04:56:04;;;;;;;17.15;7.75;;;;;;;-6.22;56.16;102046.89;1714744;82;21181;-54
2023/01/10 04:59:09;;;;;;;27.87;9.73;;;;;;;-6.23;56.24;102057.55;1718988;82;21221;-55
2023/01/10 05:02:15;;;;;;;12.35;4.92;;;;;;;-6.18;56.37;102057.02;1711200;83;21381;-56
2023/01/10 05:05:21;;;;;;;22.32;7.05;;;;;;;-6.18;56.33;102059.67;1710441;83;21185;-55
2023/01/10 05:08:28;;;;;;;20.23;7.85;;;;;;;-6.14;56.38;102062.72;1707277;82;21221;-55
2023/01/10 05:11:33;;;;;;;12.82;6.35;;;;;;;-6.15;56.29;102062.28;1714915;83;21263;-56
2023/01/10 05:14:39;;;;;;;15.58;5.20;;;;;;;-6.12;56.35;102071.58;1714153;82;21362;-55
2023/01/10 05:17:45;;;;;;;10.75;4.97;;;;;;;-6.14;56.27;102070.72;1742629;82;21808;-55
2023/01/10 05:20:51;;;;;;;31.90;13.18;;;;;;;-6.17;56.28;102081.44;1744057;82;21248;-56
2023/01/10 05:23:57;;;;;;;11.60;4.85;;;;;;;-6.14;56.25;102072.50;1741670;82;21224;-55
2023/01/10 05:27:03;;;;;;;8.50;5.03;;;;;;;-6.19;56.20;102076.58;1744113;82;21292;-55
2023/01/10 05:30:09;;;;;;;8.65;4.72;;;;;;;-6.17;56.26;102080.55;1715304;79;21221;-55
2023/01/10 05:33:15;;;;;;;7.12;3.92;;;;;;;-6.16;56.23;102077.85;1741940;82;21244;-55
2023/01/10 05:36:21;;;;;;;8.15;3.37;;;;;;;-6.15;56.25;102068.09;1713625;82;21268;-55
2023/01/10 05:39:27;;;;;;;11.50;3.90;;;;;;;-6.08;56.37;102075.92;1741739;82;21257;-55
2023/01/10 05:42:32;;;;;;;11.73;3.35;;;;;;;-6.06;56.27;102071.89;1700067;82;21213;-55
2023/01/10 05:45:39;;;;;;;9.15;3.98;;;;;;;-6.06;56.28;102079.88;1736903;82;21216;-56
2023/01/10 05:48:45;;;;;;;10.00;3.70;;;;;;;-6.10;56.09;102084.39;1736531;82;21233;-56
2023/01/10 05:51:52;;;;;;;6.90;3.55;;;;;;;-6.10;56.07;102089.72;1748484;80;21762;-57
2023/01/10 05:54:59;;;;;;;9.20;3.77;;;;;;;-6.08;56.07;102093.69;1751695;82;21253;-55
2023/01/10 05:58:10;;;;;;;9.08;4.00;;;;;;;-6.04;56.13;102098.92;1687157;83;21230;-56
2023/01/10 06:01:17;;;;;;;8.03;4.08;;;;;;;-5.95;56.22;102095.20;1773194;81;21620;-56
2023/01/10 06:04:22;;;;;;;8.75;4.25;;;;;;;-5.92;56.09;102092.03;1743635;82;21192;-56
2023/01/10 06:07:31;;;;;;;6.90;3.83;;;;;;;-5.95;55.91;102106.77;1700022;83;21250;-56
2023/01/10 06:10:36;;;;;;;7.55;3.20;;;;;;;-5.99;55.94;102115.70;1728091;80;21196;-55
2023/01/10 06:13:44;;;;;;;8.70;3.40;;;;;;;-6.00;55.91;102117.96;1736304;80;21252;-55
2023/01/10 06:16:52;;;;;;;10.50;3.90;;;;;;;-5.99;55.88;102118.37;1744382;80;21742;-55
2023/01/10 06:20:01;;;;;;;13.90;4.72;;;;;;;-5.94;55.85;102127.16;1723551;81;21362;-55
2023/01/10 06:23:10;;;;;;;7.55;3.72;;;;;;;-5.86;55.89;102130.56;1713586;82;21222;-55
2023/01/10 06:26:17;;;;;;;7.92;3.35;;;;;;;-5.78;55.92;102129.03;1716087;82;21799;-54
2023/01/10 06:29:23;;;;;;;12.90;3.90;;;;;;;-5.76;55.86;102129.45;1709326;83;21224;-55
2023/01/10 06:32:30;;;;;;;6.78;3.35;;;;;;;-5.68;55.81;102129.28;1710017;83;21253;-55
2023/01/10 06:35:36;;;;;;;11.68;4.15;;;;;;;-5.66;55.75;102124.33;1777655;79;21184;-55
2023/01/10 06:38:43;;;;;;;17.02;3.77;;;;;;;-5.66;55.63;102112.33;1717446;81;21181;-55
2023/01/10 06:41:50;;;;;;;11.63;3.92;;;;;;;-5.66;55.53;102120.80;1720046;82;21204;-56
2023/01/10 06:44:56;;;;;;;6.08;3.65;;;;;;;-5.62;55.63;102122.03;1736101;81;21189;-56
2023/01/10 06:48:05;;;;;;;7.35;3.90;;;;;;;-5.53;55.59;102115.61;1740220;81;21216;-57
2023/01/10 06:51:12;;;;;;;13.72;3.98;;;;;;;-5.51;55.50;102113.35;1753480;80;21258;-55
2023/01/10 06:54:17;;;;;;;9.50;3.80;;;;;;;-5.55;55.35;102118.78;1672791;83;21258;-56
2023/01/10 06:57:27;;;;;;;9.03;3.67;;;;;;;-5.54;55.39;102129.88;1776501;80;21349;-57
2023/01/10 07:00:32;;;;;;;9.68;3.33;;;;;;;-5.48;55.50;102133.29;1734916;81;21317;-55
2023/01/10 07:03:42;;;;;;;8.05;3.20;;;;;;;-5.38;55.52;102129.52;1687511;83;21812;-58
2023/01/10 07:06:48;;;;;;;6.60;3.47;;;;;;;-5.29;55.48;102133.76;1725810;83;21889;-54
2023/01/10 07:09:58;;;;;;;9.95;3.75;;;;;;;-5.21;55.47;102142.48;1726123;83;21264;-56
2023/01/10 07:13:04;;;;;;;9.85;4.08;;;;;;;-5.12;55.44;102140.48;1724869;83;21892;-55
2023/01/10 07:16:12;;;;;;;11.12;4.12;;;;;;;-5.08;55.34;102135.96;1725741;82;21201;-55
2023/01/10 07:19:18;;;;;;;8.25;3.95;;;;;;;-5.10;55.21;102141.78;1725566;82;21234;-55
2023/01/10 07:22:23;;;;;;;8.20;3.85;;;;;;;-5.01;55.25;102153.61;1725121;83;21220;-56
2023/01/10 07:25:30;;;;;;;9.10;4.42;;;;;;;-5.02;55.15;102155.39;1725728;83;21217;-56
2023/01/10 07:28:35;;;;;;;24.47;6.45;;;;;;;-4.96;55.16;102156.58;1726309;83;21189;-55
2023/01/10 07:31:42;;;;;;;7.75;4.60;;;;;;;-4.91;55.15;102156.02;1751857;78;22334;-56
2023/01/10 07:34:49;;;;;;;16.62;6.83;;;;;;;-4.76;55.27;102156.98;1746578;80;21296;-56
2023/01/10 07:37:58;;;;;;;9.28;4.80;;;;;;;-4.73;55.20;102168.07;1749479;80;21298;-56
2023/01/10 07:41:04;;;;;;;9.68;4.60;;;;;;;-4.62;55.22;102161.56;1746617;82;21436;-55
2023/01/10 07:44:12;;;;;;;13.68;5.95;;;;;;;-4.54;55.20;102159.14;1740320;81;21843;-56
2023/01/10 07:47:18;;;;;;;21.97;11.50;;;;;;;-4.48;55.14;102164.33;1736154;81;21218;-55
2023/01/10 07:50:27;;;;;;;24.70;6.05;;;;;;;-4.43;55.09;102159.75;1721891;82;21259;-55
2023/01/10 07:53:34;;;;;;;8.90;4.92;;;;;;;-4.35;55.01;102169.80;1730619;82;21197;-55
2023/01/10 07:56:41;;;;;;;15.68;3.98;;;;;;;-4.32;54.91;102176.40;1784883;80;21752;-54
2023/01/10 07:59:49;;;;;;;16.15;4.72;;;;;;;-4.36;54.76;102161.38;1748835;81;21800;-55
2023/01/10 08:03:00;;;;;;;15.43;5.37;;;;;;;-4.40;54.76;102177.05;1688025;82;21828;-54
2023/01/10 08:06:12;;;;;;;8.90;4.20;;;;;;;-4.38;54.76;102179.23;1701647;82;22053;-55
2023/01/10 08:09:17;;;;;;;12.07;4.53;;;;;;;-4.29;54.85;102175.87;1775288;81;21822;-56
2023/01/10 08:12:28;;;;;;;23.60;5.95;;;;;;;-4.23;54.81;102178.86;1763211;80;21212;-54
2023/01/10 08:15:34;;;;;;;12.80;4.45;;;;;;;-4.22;54.70;102183.28;1764347;80;21251;-53
2023/01/10 08:18:44;;;;;;;12.00;5.42;;;;;;;-4.21;54.70;102181.02;1748441;80;21224;-54
2023/01/10 08:21:53;;;;;;;12.58;4.92;;;;;;;-4.23;54.57;102182.39;1752504;81;21354;-55
2023/01/10 08:24:59;;;;;;;19.62;6.10;;;;;;;-4.14;54.70;102191.54;1762043;81;21479;-55
2023/01/10 08:28:07;;;;;;;15.30;4.70;;;;;;;-3.99;54.73;102187.56;1763537;81;21201;-55
2023/01/10 08:31:14;;;;;;;11.22;4.72;;;;;;;-3.90;54.67;102196.22;1763449;80;21227;-55
2023/01/10 08:34:22;;;;;;;11.80;5.17;;;;;;;-3.82;54.63;102189.35;1743557;81;21511;-55
2023/01/10 08:37:28;;;;;;;15.68;5.20;;;;;;;-3.79;54.61;102188.78;1712415;81;21749;-55
2023/01/10 08:40:33;;;;;;;11.53;4.30;;;;;;;-3.65;54.71;102200.02;1730885;82;21550;-55
2023/01/10 08:43:39;;;;;;;8.03;4.15;;;;;;;-3.58;54.57;102188.66;1680089;82;21753;-56
2023/01/10 08:46:44;;;;;;;9.70;4.83;;;;;;;-3.60;54.44;102193.20;1707296;83;21214;-56
2023/01/10 08:49:51;;;;;;;16.10;5.58;;;;;;;-3.50;54.53;102184.85;1751320;81;21240;-54
2023/01/10 08:52:58;;;;;;;11.48;4.83;;;;;;;-3.38;54.55;102176.94;1763339;80;21575;-56
2023/01/10 08:56:05;;;;;;;15.95;4.70;;;;;;;-3.28;54.54;102165.02;1754039;81;21382;-56
2023/01/10 08:59:14;;;;;;;37.23;6.90;;;;;;;-3.18;54.54;102169.19;1771420;80;21772;-56
2023/01/10 09:02:21;;;;;;;7.80;4.12;;;;;;;-3.13;54.43;102149.84;1761906;80;21279;-55
2023/01/10 09:05:28;;;;;;;12.18;3.95;;;;;;;-3.22;54.23;102152.81;1748926;80;21487;-55
2023/01/10 09:08:37;;;;;;;56.75;5.92;;;;;;;-3.25;54.34;102146.22;1707791;81;21773;-56
2023/01/10 09:11:43;;;;;;;17.98;3.95;;;;;;;-3.17;54.39;102149.06;1684049;82;21227;-55
2023/01/10 09:14:56;;;;;;;13.50;5.13;;;;;;;-3.12;54.38;102136.86;1758045;81;21753;-56
2023/01/10 09:18:08;;;;;;;6.75;3.92;;;;;;;-3.15;54.20;102138.30;1759517;81;21303;-56
2023/01/10 09:21:17;;;;;;;10.50;4.50;;;;;;;-3.15;54.27;102136.96;1712605;83;21213;-55
2023/01/10 09:24:24;;;;;;;14.35;4.65;;;;;;;-3.04;54.35;102129.95;1743298;81;21200;-56
2023/01/10 09:27:30;;;;;;;14.75;5.12;;;;;;;-2.97;54.27;102117.66;1733398;82;21285;-54
2023/01/10 09:30:36;;;;;;;10.35;4.25;;;;;;;-2.86;54.32;102121.32;1710700;82;21321;-53
2023/01/10 09:33:43;;;;;;;12.10;5.00;;;;;;;-2.80;54.22;102112.63;1724000;81;21265;-56
2023/01/10 09:36:49;;;;;;;10.28;4.28;;;;;;;-2.68;54.30;102123.42;1741695;81;21239;-57
2023/01/10 09:39:55;;;;;;;28.55;5.95;;;;;;;-2.55;54.34;102101.51;1721969;83;21220;-56
2023/01/10 09:43:43;;;;;;;16.30;4.45;;;;;;;-2.45;54.18;102106.09;1697944;81;21291;-57
2023/01/10 09:47:15;;;;;;;8.18;4.17;;;;;;;-2.44;54.00;102104.70;1729163;81;21264;-56
2023/01/10 09:50:28;;;;;;;7.37;4.40;;;;;;;-2.38;54.08;102107.17;1721301;81;21220;-57
2023/01/10 09:53:36;;;;;;;9.30;4.78;;;;;;;-2.14;54.18;102100.11;1721499;83;22000;-56
2023/01/10 09:56:41;;;;;;;12.55;4.97;;;;;;;-1.96;54.07;102109.71;1735171;82;21610;-56
2023/01/10 09:59:50;;;;;;;9.75;4.60;;;;;;;-2.00;53.86;102103.17;1721309;82;21228;-56
2023/01/10 10:03:00;;;;;;;13.30;4.55;;;;;;;-1.96;53.92;102103.00;1776788;79;21264;-57
2023/01/10 10:06:21;;;;;;;14.10;4.65;;;;;;;-1.83;53.90;102107.46;1735590;82;21728;-56
2023/01/10 10:09:38;;;;;;;10.53;5.22;;;;;;;-1.70;53.96;102102.91;1735086;82;21277;-56
2023/01/10 10:13:21;;;;;;;15.25;4.60;;;;;;;-1.61;53.83;102103.05;1734787;81;21285;-55
2023/01/10 10:17:05;;;;;;;14.58;4.90;;;;;;;-1.66;53.64;102101.89;1736434;82;21630;-56
2023/01/10 10:20:36;;;;;;;16.12;4.58;;;;;;;-1.61;53.69;102103.94;1736764;82;21222;-56
2023/01/10 10:24:00;;;;;;;9.80;4.50;;;;;;;-1.60;53.66;102098.97;1736875;82;21254;-59
2023/01/10 10:27:16;;;;;;;12.30;4.33;;;;;;;-1.41;53.83;102099.62;1736562;82;21739;-59
2023/01/10 10:30:41;;;;;;;11.30;3.55;;;;;;;-1.28;53.83;102092.86;1736400;82;21209;-60
2023/01/10 10:34:19;;;;;;;13.62;4.47;;;;;;;-1.15;53.78;102069.47;1737075;82;21769;-60
2023/01/10 10:37:37;;;;;;;20.97;5.12;;;;;;;-1.16;53.53;102088.34;1741904;81;21224;-59
2023/01/10 10:40:46;;;;;;;13.55;4.33;;;;;;;-1.13;53.47;102093.59;1742105;82;21703;-60
2023/01/10 10:43:53;;;;;;;11.12;4.03;;;;;;;-1.10;53.35;102091.66;1742442;82;21252;-59
2023/01/10 10:47:00;;;;;;;11.95;4.62;;;;;;;-1.16;53.30;102088.34;1741496;82;21229;-59
2023/01/10 10:50:44;;;;;;;20.08;5.25;;;;;;;-1.16;53.19;102076.25;1742013;82;21209;-60
2023/01/10 10:53:52;;;;;;;17.42;4.08;;;;;;;-1.21;53.15;102088.52;1725989;82;21201;-58
2023/01/10 10:56:57;;;;;;;17.35;4.60;;;;;;;-1.09;53.30;102073.25;1741448;80;21236;-58
2023/01/10 11:00:02;;;;;;;12.80;4.87;;;;;;;-1.01;53.32;102082.34;1741117;81;21248;-59
2023/01/10 11:03:31;;;;;;;9.38;4.22;;;;;;;-0.90;53.39;102068.00;1738795;80;21228;-58
2023/01/10 11:06:39;;;;;;;14.75;4.40;;;;;;;-0.93;53.15;102073.50;1742054;81;21272;-60
2023/01/10 11:13:00;;;;;;;9.55;4.25;;;;;;;-1.08;53.05;102081.73;1742144;82;21280;-59
2023/01/10 11:16:07;;;;;;;23.00;4.67;;;;;;;-1.04;53.09;102083.81;1742376;82;21204;-60
2023/01/10 11:19:29;;;;;;;15.90;4.22;;;;;;;-0.98;53.08;102088.97;1741838;82;21244;-60
2023/01/10 11:22:48;;;;;;;11.83;4.40;;;;;;;-0.97;53.01;102075.47;1741365;82;21619;-58
2023/01/10 11:25:55;;;;;;;9.88;4.20;;;;;;;-1.05;52.83;102088.79;1741838;81;21244;-58
2023/01/10 11:29:30;;;;;;;13.18;3.77;;;;;;;-1.03;52.91;102089.62;1741285;81;21264;-58
2023/01/10 11:32:43;;;;;;;17.05;4.50;;;;;;;-0.97;52.92;102097.42;1741828;82;21675;-59
2023/01/10 11:36:06;;;;;;;12.90;4.00;;;;;;;-1.08;52.78;102095.17;1742353;80;21193;-58
2023/01/10 11:39:15;;;;;;;13.50;4.47;;;;;;;-1.06;52.80;102102.69;1746274;82;21601;-60
2023/01/10 11:42:36;;;;;;;11.05;4.53;;;;;;;-1.10;52.71;102110.47;1709219;84;21358;-59
2023/01/10 11:45:45;;;;;;;9.85;3.72;;;;;;;-1.10;52.78;102119.88;1713055;84;21200;-57
2023/01/10 11:49:13;;;;;;;;;;;;;;;-1.06;52.83;102117.95;1714269;84;21224;-58
2023/01/10 11:52:30;;;;;;;9.15;3.90;;;;;;;-1.07;52.75;102117.52;1710118;84;20220;-57
2023/01/10 11:55:37;;;;;;;8.95;3.80;;;;;;;-1.01;52.86;102124.00;1770560;79;21306;-56
2023/01/10 11:58:43;;;;;;;7.37;3.70;;;;;;;-0.94;52.91;102104.02;1737630;82;21288;-57
2023/01/10 12:02:10;;;;;;;15.38;4.67;;;;;;;-0.99;52.72;102110.04;1740986;82;21208;-56
2023/01/10 12:05:19;;;;;;;8.40;3.87;;;;;;;-1.04;52.63;102106.66;1775541;81;21196;-57
2023/01/10 12:08:35;;;;;;;13.32;4.25;;;;;;;-1.18;52.54;102109.01;1738865;82;21375;-57
2023/01/10 12:11:41;;;;;;;14.73;3.72;;;;;;;-1.24;52.56;102120.88;1724975;81;21880;-56
2023/01/10 12:15:08;;;;;;;12.65;4.05;;;;;;;-1.30;52.59;102098.26;1774468;79;21200;-57
2023/01/10 12:18:12;;;;;;;11.48;3.77;;;;;;;-1.35;52.57;102122.22;1738177;82;21773;-57
2023/01/10 12:21:36;;;;;;;26.37;3.98;;;;;;;-1.40;52.52;102126.88;1723442;83;21725;-56
2023/01/10 12:24:48;;;;;;;12.00;3.62;;;;;;;-1.58;52.32;102129.78;1723390;82;21350;-57
2023/01/10 12:27:56;;;;;;;18.62;4.58;;;;;;;-1.61;52.35;102113.80;1723458;83;21300;-57
2023/01/10 12:31:07;;;;;;;9.78;4.20;;;;;;;-1.60;52.42;102133.88;1722760;83;21299;-57
2023/01/10 12:34:25;;;;;;;20.95;4.75;;;;;;;-1.63;52.41;102132.64;1722637;83;21348;-56
2023/01/10 12:37:57;;;;;;;12.55;4.30;;;;;;;-1.63;52.39;102120.56;1691323;80;21220;-57
2023/01/10 12:41:06;;;;;;;28.17;4.75;;;;;;;-1.60;52.44;102139.70;1739941;82;21200;-56
2023/01/10 12:44:26;;;;;;;14.07;4.12;;;;;;;-1.59;52.41;102149.03;1747500;82;21220;-57
2023/01/10 12:48:01;;;;;;;17.25;4.72;;;;;;;-1.62;52.35;102161.72;1753530;82;21271;-57
2023/01/10 12:51:17;;;;;;;11.97;4.25;;;;;;;-1.58;52.37;102149.47;1727663;82;21184;-57
2023/01/10 12:54:27;;;;;;;7.58;3.75;;;;;;;-1.54;52.35;102141.69;1747617;80;21573;-57
2023/01/10 12:57:40;;;;;;;9.73;3.55;;;;;;;-1.54;52.24;102150.23;1784306;80;21207;-57
2023/01/10 13:01:07;;;;;;;8.65;3.87;;;;;;;-1.58;52.24;102154.84;1784947;80;21776;-57
2023/01/10 13:04:21;;;;;;;7.80;4.05;;;;;;;-1.61;52.14;102171.06;1784374;80;21188;-57
2023/01/10 13:07:32;;;;;;;13.18;3.85;;;;;;;-1.68;52.10;102158.77;1759362;80;21226;-57
2023/01/10 13:10:39;;;;;;;10.08;3.70;;;;;;;-1.67;52.19;102165.92;1785395;80;21181;-56
2023/01/10 13:13:53;;;;;;;13.43;3.90;;;;;;;-1.64;52.15;102179.23;1814282;78;21196;-59
2023/01/10 13:17:34;;;;;;;15.78;3.80;;;;;;;-1.74;51.96;102176.45;1775092;80;21224;-55
2023/01/10 13:20:48;;;;;;;8.75;3.65;;;;;;;-1.79;51.99;102174.39;1744490;82;21482;-55
2023/01/10 13:23:55;;;;;;;;;;;;;;;-1.77;51.97;102176.56;1731781;80;21221;-56
2023/01/10 13:27:06;;;;;;;14.00;3.08;;;;;;;-1.83;51.89;102184.84;1710245;81;20602;-58
2023/01/10 13:30:18;;;;;;;9.90;4.20;;;;;;;-1.90;51.85;102187.31;1731546;80;21347;-56
2023/01/10 13:33:39;;;;;;;7.35;3.47;;;;;;;-1.95;51.83;102179.88;1708480;82;21233;-57
2023/01/10 13:36:48;;;;;;;8.58;3.22;;;;;;;-1.95;51.87;102172.31;1720035;82;21220;-56
2023/01/10 13:40:05;;;;;;;16.52;4.67;;;;;;;-2.02;51.71;102182.37;1758095;77;21207;-57
2023/01/10 13:43:45;;;;;;;13.90;4.97;;;;;;;-2.10;51.66;102187.13;1674306;84;21272;-56
2023/01/10 13:46:56;;;;;;;8.40;3.70;;;;;;;-2.15;51.65;102193.11;1699048;82;21291;-55
2023/01/10 13:50:02;;;;;;;5.17;3.00;;;;;;;-2.15;51.66;102202.50;1750523;81;21221;-56
2023/01/10 13:53:20;;;;;;;6.40;3.50;;;;;;;-2.17;51.68;102186.91;1751054;82;21252;-57
2023/01/10 13:56:46;;;;;;;5.20;2.90;;;;;;;-2.21;51.58;102209.41;1750680;81;21241;-58
2023/01/10 14:04:01;;;;;;;7.00;3.67;;;;;;;-2.47;51.44;102200.44;1751075;80;21187;-57
2023/01/10 14:07:13;;;;;;;6.65;3.30;;;;;;;-2.53;51.44;102203.32;1749911;80;21623;-57
2023/01/10 14:10:38;;;;;;;7.45;3.27;;;;;;;-2.55;51.50;102202.03;1668067;84;21264;-55
2023/01/10 14:13:48;;;;;;;10.13;3.42;;;;;;;-2.58;51.47;102199.91;1756421;80;21579;-57
2023/01/10 14:16:59;;;;;;;10.13;3.25;;;;;;;-2.64;51.36;102204.13;1739371;81;21722;-56
2023/01/10 14:20:24;;;;;;;6.95;3.25;;;;;;;-2.76;51.29;102207.20;1697095;82;21201;-57
2023/01/10 14:23:37;;;;;;;15.15;5.37;;;;;;;-2.81;51.38;102223.42;1678993;82;21982;-56
2023/01/10 14:26:44;;;;;;;8.65;3.22;;;;;;;-2.87;51.29;102227.60;1667738;86;21261;-55
2023/01/10 14:30:02;;;;;;;9.75;3.47;;;;;;;-3.02;51.18;102232.09;1666945;86;22079;-56
2023/01/10 14:33:25;;;;;;;8.33;3.20;;;;;;;-3.15;51.20;102235.59;1745416;81;21209;-57
2023/01/10 14:36:40;;;;;;;8.35;3.47;;;;;;;-3.25;51.25;102237.25;1696931;84;21238;-57
2023/01/10 14:39:46;;;;;;;6.17;3.20;;;;;;;-3.33;51.32;102236.59;1706373;81;21271;-56
2023/01/10 14:42:57;;;;;;;7.30;2.80;;;;;;;-3.37;51.35;102245.61;1752268;81;21880;-56
2023/01/10 14:46:38;;;;;;;6.45;2.75;;;;;;;-3.41;51.31;102241.28;1695062;84;21819;-56
2023/01/10 14:50:01;;;;;;;13.85;3.72;;;;;;;-3.48;51.27;102239.23;1778239;80;21319;-56
2023/01/10 14:53:08;;;;;;;23.18;3.50;;;;;;;-3.58;51.19;102253.77;1731521;81;21925;-56
2023/01/10 14:56:25;;;;;;;6.00;3.02;;;;;;;-3.71;51.16;102228.73;1705193;83;21280;-57
2023/01/10 14:59:39;;;;;;;6.83;2.77;;;;;;;-3.78;51.15;102249.87;1777516;79;21798;-57